createdAt,value
2019-02-09T00:00:37.789Z,3.60
2019-02-09T00:03:08.258Z,4.30
2019-02-09T00:05:36.339Z,3.53
2019-02-09T00:08:05.748Z,3.10
2019-02-09T00:10:33.929Z,3.17
2019-02-09T00:13:02.065Z,3.30
2019-02-09T00:15:30.564Z,2.33
2019-02-09T00:17:58.740Z,2.93
2019-02-09T00:20:26.884Z,2.60
2019-02-09T00:22:56.161Z,3.07
2019-02-09T00:25:34.199Z,2.83
2019-02-09T00:28:02.190Z,2.83
2019-02-09T00:30:46.129Z,2.80
2019-02-09T00:33:23.500Z,2.80
2019-02-09T00:35:51.676Z,2.70
2019-02-09T00:38:19.868Z,2.63
2019-02-09T00:40:49.182Z,3.67
2019-02-09T00:43:17.362Z,3.33
2019-02-09T00:45:48.194Z,2.20
2019-02-09T00:48:17.580Z,2.30
2019-02-09T00:50:46.527Z,2.30
2019-02-09T00:53:14.664Z,2.73
2019-02-09T00:55:44.965Z,2.27
2019-02-09T00:58:13.250Z,2.53
2019-02-09T01:00:41.385Z,2.83
2019-02-09T01:03:09.795Z,2.60
2019-02-09T01:05:42.153Z,2.47
2019-02-09T01:08:10.358Z,2.53
2019-02-09T01:10:39.788Z,2.80
2019-02-09T01:13:08.607Z,2.00
2019-02-09T01:15:36.761Z,2.20
2019-02-09T01:18:05.922Z,2.70
2019-02-09T01:20:34.226Z,2.17
2019-02-09T01:23:02.378Z,1.90
2019-02-09T01:25:31.309Z,2.13
2019-02-09T01:27:59.479Z,2.23
2019-02-09T01:30:29.196Z,2.63
2019-02-09T01:32:57.347Z,2.60
2019-02-09T01:35:29.937Z,1.87
2019-02-09T01:37:59.145Z,2.00
2019-02-09T01:40:31.064Z,2.57
2019-02-09T01:42:59.224Z,1.60
2019-02-09T01:45:28.056Z,2.37
2019-02-09T01:47:57.267Z,2.67
2019-02-09T01:50:25.980Z,2.53
2019-02-09T01:52:55.752Z,2.53
2019-02-09T01:55:26.043Z,2.53
2019-02-09T01:57:55.734Z,2.23
2019-02-09T02:00:24.744Z,2.10
2019-02-09T02:02:56.191Z,2.37
2019-02-09T02:05:24.807Z,1.93
2019-02-09T02:07:53.089Z,2.70
2019-02-09T02:10:22.732Z,2.60
2019-02-09T02:12:50.869Z,2.30
2019-02-09T02:15:19.252Z,2.47
2019-02-09T02:17:48.358Z,3.33
2019-02-09T02:20:20.818Z,2.90
2019-02-09T02:22:49.029Z,3.90
2019-02-09T02:25:20.541Z,3.43
2019-02-09T02:27:48.713Z,3.00
2019-02-09T02:30:22.340Z,3.33
2019-02-09T02:32:48.997Z,2.43
2019-02-09T02:35:17.141Z,3.07
2019-02-09T02:37:45.298Z,3.73
2019-02-09T02:40:14.247Z,2.70
2019-02-09T02:42:44.035Z,3.30
2019-02-09T02:45:15.001Z,3.77
2019-02-09T02:47:43.981Z,3.03
2019-02-09T02:50:13.195Z,3.07
2019-02-09T02:52:41.345Z,3.13
2019-02-09T02:55:12.792Z,3.63
2019-02-09T02:57:47.173Z,4.23
2019-02-09T03:00:20.019Z,4.13
2019-02-09T03:02:48.752Z,3.80
2019-02-09T03:05:17.980Z,4.00
2019-02-09T03:07:49.887Z,4.03
2019-02-09T03:10:18.054Z,3.37
2019-02-09T03:12:46.473Z,4.33
2019-02-09T03:15:18.991Z,3.33
2019-02-09T03:17:48.313Z,3.87
2019-02-09T03:20:17.921Z,3.80
2019-02-09T03:22:46.215Z,4.87
2019-02-09T03:25:16.256Z,4.27
2019-02-09T03:27:44.404Z,4.83
2019-02-09T03:30:16.283Z,4.33
2019-02-09T03:32:44.449Z,5.80
2019-02-09T03:35:15.632Z,5.83
2019-02-09T03:37:49.974Z,4.87
2019-02-09T03:40:21.205Z,4.70
2019-02-09T03:42:49.387Z,4.47
2019-02-09T03:45:19.891Z,4.00
2019-02-09T03:47:48.120Z,4.27
2019-02-09T03:50:20.361Z,5.97
2019-02-09T03:52:48.479Z,4.83
2019-02-09T03:55:16.638Z,4.50
2019-02-09T03:57:44.804Z,4.17
2019-02-09T04:00:14.581Z,4.13
2019-02-09T04:02:42.728Z,4.33
2019-02-09T04:05:11.564Z,4.43
2019-02-09T04:07:39.753Z,4.03
2019-02-09T04:10:09.473Z,5.13
2019-02-09T04:12:37.637Z,3.97
2019-02-09T04:15:07.052Z,3.70
2019-02-09T04:17:35.192Z,5.20
2019-02-09T04:20:04.858Z,4.43
2019-02-09T04:22:33.130Z,4.57
2019-02-09T04:25:01.341Z,4.37
2019-02-09T04:27:29.449Z,4.57
2019-02-09T04:29:57.595Z,4.33
2019-02-09T04:32:25.734Z,3.90
2019-02-09T04:34:53.914Z,4.30
2019-02-09T04:37:22.054Z,4.60
2019-02-09T04:39:50.193Z,4.80
2019-02-09T04:42:18.368Z,4.73
2019-02-09T04:44:46.506Z,4.77
2019-02-09T04:47:14.640Z,4.93
2019-02-09T04:49:42.818Z,5.30
2019-02-09T04:52:10.956Z,5.17
2019-02-09T04:54:39.105Z,4.87
2019-02-09T04:57:07.278Z,5.77
2019-02-09T04:59:35.424Z,4.27
2019-02-09T05:02:03.559Z,4.83
2019-02-09T05:04:31.722Z,4.50
2019-02-09T05:06:59.870Z,5.53
2019-02-09T05:09:28.008Z,5.30
2019-02-09T05:11:56.313Z,4.80
2019-02-09T05:14:24.466Z,3.97
2019-02-09T05:16:52.600Z,5.93
2019-02-09T05:19:20.772Z,4.77
2019-02-09T05:21:48.917Z,4.80
2019-02-09T05:24:17.050Z,5.33
2019-02-09T05:26:45.221Z,5.23
2019-02-09T05:29:13.682Z,6.03
2019-02-09T05:31:41.785Z,6.17
2019-02-09T05:34:09.954Z,4.50
2019-02-09T05:36:38.088Z,5.03
2019-02-09T05:39:06.805Z,5.77
2019-02-09T05:41:34.985Z,4.60
2019-02-09T05:44:03.187Z,6.37
2019-02-09T05:46:31.334Z,5.00
2019-02-09T05:48:59.512Z,4.77
2019-02-09T05:51:27.649Z,4.87
2019-02-09T05:53:55.788Z,4.60
2019-02-09T05:56:24.089Z,5.00
2019-02-09T05:58:52.229Z,4.50
2019-02-09T06:01:20.373Z,4.07
2019-02-09T06:03:48.579Z,5.30
2019-02-09T06:06:16.721Z,5.23
2019-02-09T06:08:44.856Z,3.90
2019-02-09T06:11:14.665Z,5.33
2019-02-09T06:13:42.807Z,4.50
2019-02-09T06:16:10.944Z,4.87
2019-02-09T06:18:40.142Z,5.70
2019-02-09T06:21:10.997Z,4.70
2019-02-09T06:23:39.081Z,4.60
2019-02-09T06:26:07.257Z,4.27
2019-02-09T06:28:35.704Z,4.53
2019-02-09T06:31:03.836Z,5.20
2019-02-09T06:33:31.999Z,4.93
2019-02-09T06:36:00.143Z,5.50
2019-02-09T06:38:28.287Z,4.73
2019-02-09T06:40:56.461Z,4.73
2019-02-09T06:43:24.601Z,6.57
2019-02-09T06:45:52.740Z,5.13
2019-02-09T06:48:24.565Z,5.47
2019-02-09T06:50:53.109Z,5.93
2019-02-09T06:53:40.865Z,6.23
2019-02-09T06:56:16.145Z,7.47
2019-02-09T06:58:44.330Z,5.37
2019-02-09T07:01:13.049Z,5.00
2019-02-09T07:03:46.725Z,6.13
2019-02-09T07:06:19.021Z,7.80
2019-02-09T07:08:55.019Z,7.47
2019-02-09T07:11:25.093Z,8.43
2019-02-09T07:13:53.269Z,7.93
2019-02-09T07:16:23.858Z,6.23
2019-02-09T07:18:52.043Z,7.20
2019-02-09T07:21:23.140Z,7.03
2019-02-09T07:23:52.433Z,7.17
2019-02-09T07:26:20.738Z,6.10
2019-02-09T07:28:48.888Z,7.03
2019-02-09T07:31:17.058Z,7.70
2019-02-09T07:33:45.270Z,8.67
2019-02-09T07:36:13.407Z,7.60
2019-02-09T07:38:50.098Z,7.57
2019-02-09T07:41:23.231Z,6.37
2019-02-09T07:43:53.185Z,6.90
2019-02-09T07:46:21.333Z,6.97
2019-02-09T07:48:51.277Z,6.70
2019-02-09T07:51:19.350Z,6.47
2019-02-09T07:53:47.503Z,5.70
2019-02-09T07:56:15.710Z,6.60
2019-02-09T07:58:43.967Z,6.27
2019-02-09T08:01:12.808Z,5.80
2019-02-09T08:03:40.984Z,6.57
2019-02-09T08:06:09.159Z,7.97
2019-02-09T08:08:39.243Z,6.87
2019-02-09T08:11:09.165Z,6.47
2019-02-09T08:13:36.924Z,7.93
2019-02-09T08:16:06.036Z,6.17
2019-02-09T08:18:34.142Z,5.87
2019-02-09T08:21:02.283Z,6.17
2019-02-09T08:23:31.796Z,5.10
2019-02-09T08:26:00.677Z,6.43
2019-02-09T08:28:28.963Z,5.63
2019-02-09T08:30:57.170Z,5.43
2019-02-09T08:33:25.461Z,5.57
2019-02-09T08:35:53.622Z,6.20
2019-02-09T08:38:21.768Z,5.90
2019-02-09T08:40:49.943Z,7.10
2019-02-09T08:43:19.068Z,5.00
2019-02-09T08:45:47.136Z,5.97
2019-02-09T08:48:17.874Z,4.00
2019-02-09T08:50:47.773Z,6.83
2019-02-09T08:53:15.918Z,5.30
2019-02-09T08:55:44.983Z,5.70
2019-02-09T08:58:13.256Z,7.27
2019-02-09T09:00:41.401Z,6.90
2019-02-09T09:03:09.737Z,6.43
2019-02-09T09:05:39.852Z,6.40
2019-02-09T09:08:07.663Z,8.37
2019-02-09T09:10:37.280Z,5.90
2019-02-09T09:13:05.439Z,5.57
2019-02-09T09:15:35.087Z,5.60
2019-02-09T09:18:03.269Z,6.57
2019-02-09T09:20:35.373Z,6.17
2019-02-09T09:23:03.716Z,5.73
2019-02-09T09:25:31.893Z,6.50
2019-02-09T09:28:00.055Z,5.93
2019-02-09T09:30:29.844Z,5.87
2019-02-09T09:32:58.826Z,5.37
2019-02-09T09:35:26.944Z,4.90
2019-02-09T09:37:55.260Z,5.90
2019-02-09T09:40:24.826Z,5.40
2019-02-09T09:42:53.461Z,4.83
2019-02-09T09:45:22.875Z,5.17
2019-02-09T09:47:51.058Z,5.33
2019-02-09T09:50:20.268Z,5.77
2019-02-09T09:52:48.648Z,5.87
2019-02-09T09:55:16.827Z,4.67
2019-02-09T09:57:44.981Z,7.35
2019-02-09T10:03:08.413Z,5.40
2019-02-09T10:05:38.225Z,5.50
2019-02-09T10:08:08.057Z,5.47
2019-02-09T10:10:51.576Z,4.67
2019-02-09T10:13:19.649Z,5.43
2019-02-09T10:15:49.970Z,4.43
2019-02-09T10:18:19.262Z,5.27
2019-02-09T10:20:51.947Z,5.03
2019-02-09T10:23:21.771Z,4.83
2019-02-09T10:25:57.251Z,4.47
2019-02-09T10:28:28.790Z,4.60
2019-02-09T10:31:00.277Z,5.70
2019-02-09T10:36:24.817Z,5.97
2019-02-09T10:38:55.733Z,5.70
2019-02-09T10:41:26.331Z,6.17
2019-02-09T10:43:55.937Z,5.50
2019-02-09T10:46:36.288Z,5.10
2019-02-09T10:49:05.826Z,5.07
2019-02-09T10:51:36.197Z,4.60
2019-02-09T10:54:04.350Z,6.13
2019-02-09T10:59:27.758Z,6.23
2019-02-09T11:01:57.651Z,5.37
2019-02-09T11:04:25.728Z,6.35
2019-02-09T11:06:53.873Z,6.20
2019-02-09T11:09:22.211Z,4.67
2019-02-09T11:11:50.487Z,5.30
2019-02-09T11:14:19.126Z,4.33
2019-02-09T11:16:47.432Z,5.37
2019-02-09T11:19:15.569Z,5.23
2019-02-09T11:21:43.715Z,4.43
2019-02-09T11:24:12.284Z,5.53
2019-02-09T11:26:42.084Z,3.90
2019-02-09T11:29:11.022Z,4.80
2019-02-09T11:31:42.129Z,4.10
2019-02-09T11:34:10.534Z,4.30
2019-02-09T11:36:42.139Z,4.53
2019-02-09T11:39:12.028Z,4.30
2019-02-09T11:41:41.224Z,5.00
2019-02-09T11:44:09.870Z,4.70
2019-02-09T11:46:38.040Z,5.00
2019-02-09T11:49:06.213Z,5.50
2019-02-09T11:51:35.586Z,5.53
2019-02-09T11:54:04.051Z,5.67
2019-02-09T11:56:32.204Z,5.57
2019-02-09T11:59:00.355Z,5.23
2019-02-09T12:01:29.902Z,5.63
2019-02-09T12:03:58.060Z,6.07
2019-02-09T12:06:30.466Z,4.50
2019-02-09T12:08:58.878Z,4.83
2019-02-09T12:11:27.016Z,4.47
2019-02-09T12:13:55.645Z,6.15
2019-02-09T12:16:23.836Z,5.00
2019-02-09T12:18:51.992Z,3.97
2019-02-09T12:21:20.126Z,4.50
2019-02-09T12:23:49.939Z,6.13
2019-02-09T12:26:18.077Z,4.27
2019-02-09T12:28:46.239Z,5.23
2019-02-09T12:31:15.431Z,5.30
2019-02-09T12:33:43.582Z,6.37
2019-02-09T12:36:11.733Z,6.00
2019-02-09T12:38:39.919Z,6.20
2019-02-09T12:41:08.065Z,6.53
2019-02-09T12:43:36.278Z,5.87
2019-02-09T12:46:04.712Z,6.70
2019-02-09T12:48:35.759Z,5.43
2019-02-09T12:51:03.934Z,5.73
2019-02-09T12:53:33.322Z,7.30
2019-02-09T12:56:06.129Z,5.87
2019-02-09T12:58:37.928Z,6.63
2019-02-09T13:01:07.897Z,5.37
2019-02-09T13:03:37.692Z,5.97
2019-02-09T13:06:05.845Z,5.20
2019-02-09T13:08:33.993Z,5.90
2019-02-09T13:11:02.153Z,4.50
2019-02-09T13:13:31.955Z,5.43
2019-02-09T13:16:00.098Z,5.47
2019-02-09T13:18:29.327Z,5.27
2019-02-09T13:20:57.526Z,5.13
2019-02-09T13:23:26.686Z,6.90
2019-02-09T13:25:55.152Z,6.40
2019-02-09T13:28:29.582Z,6.40
2019-02-09T13:30:57.744Z,5.37
2019-02-09T13:33:26.581Z,5.47
2019-02-09T13:35:54.759Z,5.43
2019-02-09T13:38:22.910Z,5.00
2019-02-09T13:40:51.216Z,5.60
2019-02-09T13:43:19.410Z,5.00
2019-02-09T13:45:48.729Z,4.77
2019-02-09T13:48:23.967Z,5.33
2019-02-09T13:50:52.606Z,5.03
2019-02-09T13:53:23.741Z,6.03
2019-02-09T13:55:53.633Z,5.97
2019-02-09T13:58:22.389Z,5.17
2019-02-09T14:00:55.470Z,5.43
2019-02-09T14:03:26.492Z,5.17
2019-02-09T14:06:08.017Z,6.57
2019-02-09T14:08:50.586Z,5.13
2019-02-09T14:11:33.432Z,5.50
2019-02-09T14:16:53.125Z,5.63
2019-02-09T14:19:24.678Z,5.03
2019-02-09T14:22:00.117Z,7.20
2019-02-09T14:24:28.310Z,6.67
2019-02-09T14:26:56.456Z,5.70
2019-02-09T14:29:24.591Z,6.07
2019-02-09T14:31:52.755Z,5.40
2019-02-09T14:34:20.905Z,6.47
2019-02-09T14:36:49.053Z,5.43
2019-02-09T14:39:17.225Z,6.57
2019-02-09T14:41:45.427Z,5.57
2019-02-09T14:44:13.525Z,5.93
2019-02-09T14:46:41.693Z,6.03
2019-02-09T14:49:10.637Z,5.90
2019-02-09T14:51:38.782Z,6.53
2019-02-09T14:54:06.957Z,5.77
2019-02-09T14:56:35.092Z,5.63
2019-02-09T14:59:03.241Z,6.63
2019-02-09T15:01:31.425Z,6.00
2019-02-09T15:04:02.865Z,6.37
2019-02-09T15:06:29.504Z,7.27
2019-02-09T15:08:57.694Z,7.40
2019-02-09T15:11:25.846Z,6.37
2019-02-09T15:13:53.983Z,5.93
2019-02-09T15:16:23.920Z,5.73
2019-02-09T15:18:52.129Z,5.93
2019-02-09T15:21:20.268Z,5.90
2019-02-09T15:23:48.446Z,5.73
2019-02-09T15:26:16.584Z,4.97
2019-02-09T15:28:44.730Z,5.70
2019-02-09T15:31:13.053Z,4.83
2019-02-09T15:33:41.413Z,5.37
2019-02-09T15:36:09.556Z,4.80
2019-02-09T15:38:38.058Z,5.93
2019-02-09T15:41:06.192Z,5.43
2019-02-09T15:43:34.337Z,6.20
2019-02-09T15:46:03.008Z,5.50
2019-02-09T15:48:31.155Z,5.00
2019-02-09T15:50:59.804Z,4.90
2019-02-09T15:53:29.108Z,4.73
2019-02-09T15:55:57.261Z,5.43
2019-02-09T15:58:25.520Z,5.53
2019-02-09T16:00:53.701Z,4.53
2019-02-09T16:03:21.916Z,6.73
2019-02-09T16:05:49.986Z,5.23
2019-02-09T16:08:18.157Z,5.10
2019-02-09T16:10:46.296Z,6.13
2019-02-09T16:13:14.697Z,5.87
2019-02-09T16:15:42.867Z,5.23
2019-02-09T16:18:11.394Z,5.27
2019-02-09T16:20:39.668Z,5.67
2019-02-09T16:23:07.913Z,6.37
2019-02-09T16:25:36.020Z,4.73
2019-02-09T16:28:04.157Z,5.70
2019-02-09T16:30:32.331Z,5.90
2019-02-09T16:33:00.476Z,4.93
2019-02-09T16:35:29.096Z,6.77
2019-02-09T16:37:57.270Z,5.00
2019-02-09T16:40:26.277Z,6.03
2019-02-09T16:42:54.542Z,6.20
2019-02-09T16:45:23.909Z,6.23
2019-02-09T16:47:52.072Z,6.37
2019-02-09T16:50:20.677Z,5.80
2019-02-09T16:52:49.013Z,6.50
2019-02-09T16:55:17.534Z,6.10
2019-02-09T16:57:45.741Z,6.87
2019-02-09T17:00:18.180Z,5.43
2019-02-09T17:02:46.317Z,6.17
2019-02-09T17:05:14.465Z,6.37
2019-02-09T17:07:43.938Z,6.03
2019-02-09T17:10:13.451Z,6.17
2019-02-09T17:12:41.587Z,5.23
2019-02-09T17:15:11.397Z,6.37
2019-02-09T17:17:39.536Z,5.60
2019-02-09T17:20:09.240Z,6.00
2019-02-09T17:22:37.420Z,5.93
2019-02-09T17:25:07.018Z,5.90
2019-02-09T17:27:35.159Z,4.97
2019-02-09T17:30:05.077Z,5.37
2019-02-09T17:32:33.226Z,5.37
2019-02-09T17:35:01.372Z,6.60
2019-02-09T17:37:29.614Z,5.03
2019-02-09T17:39:57.754Z,5.60
2019-02-09T17:42:25.897Z,6.00
2019-02-09T17:44:54.319Z,5.90
2019-02-09T17:47:22.485Z,5.60
2019-02-09T17:49:50.637Z,5.00
2019-02-09T17:52:18.810Z,6.63
2019-02-09T17:54:47.872Z,5.40
2019-02-09T17:57:16.064Z,5.00
2019-02-09T17:59:44.362Z,4.83
2019-02-09T18:02:12.517Z,5.80
2019-02-09T18:04:47.515Z,5.77
2019-02-09T18:07:10.483Z,6.27
2019-02-09T18:09:38.638Z,5.97
2019-02-09T18:12:06.774Z,5.43
2019-02-09T18:14:34.942Z,4.77
2019-02-09T18:17:03.076Z,5.67
2019-02-09T18:19:31.221Z,6.80
2019-02-09T18:21:59.412Z,5.97
2019-02-09T18:24:27.557Z,6.63
2019-02-09T18:26:55.709Z,5.10
2019-02-09T18:29:23.872Z,7.20
2019-02-09T18:31:52.015Z,6.93
2019-02-09T18:34:20.281Z,5.57
2019-02-09T18:36:48.484Z,5.30
2019-02-09T18:39:16.625Z,7.23
2019-02-09T18:41:44.842Z,6.13
2019-02-09T18:44:13.034Z,5.73
2019-02-09T18:46:41.181Z,5.57
2019-02-09T18:49:09.321Z,6.00
2019-02-09T18:51:37.504Z,6.43
2019-02-09T18:54:05.771Z,5.07
2019-02-09T18:56:33.919Z,5.93
2019-02-09T18:59:02.089Z,5.67
2019-02-09T19:01:30.237Z,5.90
2019-02-09T19:03:58.378Z,5.60
2019-02-09T19:06:26.557Z,5.10
2019-02-09T19:08:54.695Z,5.53
2019-02-09T19:11:22.837Z,5.73
2019-02-09T19:13:51.001Z,4.80
2019-02-09T19:16:19.140Z,6.27
2019-02-09T19:18:47.290Z,4.63
2019-02-09T19:21:15.517Z,5.10
2019-02-09T19:23:43.682Z,5.97
2019-02-09T19:26:12.030Z,5.40
2019-02-09T19:28:40.210Z,4.77
2019-02-09T19:31:08.356Z,5.80
2019-02-09T19:33:36.505Z,4.97
2019-02-09T19:36:05.877Z,4.77
2019-02-09T19:38:34.032Z,5.23
2019-02-09T19:41:02.169Z,5.17
2019-02-09T19:43:30.336Z,4.93
2019-02-09T19:45:58.631Z,5.07
2019-02-09T19:48:27.102Z,5.00
2019-02-09T19:50:55.237Z,4.10
2019-02-09T19:53:23.940Z,4.97
2019-02-09T19:55:52.374Z,4.80
2019-02-09T19:58:20.546Z,6.00
2019-02-09T20:00:48.852Z,4.63
2019-02-09T20:03:16.992Z,5.50
2019-02-09T20:05:45.421Z,4.83
2019-02-09T20:08:13.564Z,4.80
2019-02-09T20:10:42.481Z,4.10
2019-02-09T20:13:12.279Z,4.63
2019-02-09T20:15:40.462Z,5.00
2019-02-09T20:18:08.947Z,3.60
2019-02-09T20:20:37.118Z,3.87
2019-02-09T20:23:05.435Z,4.10
2019-02-09T20:25:33.577Z,3.97
2019-02-09T20:28:01.757Z,4.47
2019-02-09T20:30:30.975Z,4.03
2019-02-09T20:32:59.114Z,3.10
2019-02-09T20:35:28.118Z,4.63
2019-02-09T20:37:56.408Z,4.30
2019-02-09T20:40:32.382Z,5.03
2019-02-09T20:43:01.970Z,4.40
2019-02-09T20:45:30.384Z,3.97
2019-02-09T20:47:58.615Z,3.90
2019-02-09T20:50:26.773Z,4.20
2019-02-09T20:52:54.921Z,4.43
2019-02-09T20:55:23.088Z,5.03
2019-02-09T20:57:51.233Z,4.37
2019-02-09T21:00:26.932Z,3.67
2019-02-09T21:02:56.078Z,3.90
2019-02-09T21:05:24.285Z,4.37
2019-02-09T21:07:52.741Z,3.73
2019-02-09T21:10:22.503Z,4.17
2019-02-09T21:12:50.709Z,3.93
2019-02-09T21:15:20.150Z,4.63
2019-02-09T21:17:48.358Z,3.23
2019-02-09T21:20:16.843Z,3.90
2019-02-09T21:22:45.024Z,4.33
2019-02-09T21:25:17.560Z,4.13
2019-02-09T21:27:45.799Z,3.93
2019-02-09T21:30:15.535Z,3.00
2019-02-09T21:32:43.761Z,3.47
2019-02-09T21:35:13.274Z,3.97
2019-02-09T21:37:41.636Z,3.50
2019-02-09T21:40:11.412Z,3.53
2019-02-09T21:42:39.663Z,4.63
2019-02-09T21:45:09.216Z,4.90
2019-02-09T21:47:37.426Z,4.23
2019-02-09T21:50:07.371Z,3.80
2019-02-09T21:52:35.584Z,3.50
2019-02-09T21:55:05.197Z,3.73
2019-02-09T21:57:33.409Z,4.30
2019-02-09T22:00:01.569Z,4.07
2019-02-09T22:02:29.725Z,3.60
2019-02-09T22:05:00.282Z,3.87
2019-02-09T22:07:28.619Z,4.20
2019-02-09T22:09:56.758Z,3.83
2019-02-09T22:12:24.930Z,4.00
2019-02-09T22:14:53.709Z,3.83
2019-02-09T22:17:24.226Z,4.03
2019-02-09T22:19:52.493Z,2.90
2019-02-09T22:22:20.937Z,3.60
2019-02-09T22:24:49.106Z,3.60
2019-02-09T22:27:17.513Z,3.70
2019-02-09T22:29:45.688Z,3.30
2019-02-09T22:32:13.825Z,3.10
2019-02-09T22:34:42.093Z,3.70
2019-02-09T22:37:10.271Z,3.40
2019-02-09T22:39:38.406Z,3.40
2019-02-09T22:42:06.547Z,4.57
2019-02-09T22:44:34.714Z,3.20
2019-02-09T22:47:02.853Z,4.50
2019-02-09T22:49:30.989Z,2.80
2019-02-09T22:51:59.153Z,3.30
2019-02-09T22:54:27.313Z,3.27
2019-02-09T22:56:56.052Z,3.20
2019-02-09T22:59:24.189Z,3.60
2019-02-09T23:01:52.340Z,2.77
2019-02-09T23:04:22.105Z,3.17
2019-02-09T23:06:52.915Z,4.03
2019-02-09T23:09:21.220Z,3.10
2019-02-09T23:11:49.382Z,4.78
2019-02-09T23:14:17.542Z,3.23
2019-02-09T23:16:45.682Z,3.80
2019-02-09T23:19:13.827Z,3.80
2019-02-09T23:21:42.000Z,3.30
2019-02-09T23:24:10.144Z,3.10
2019-02-09T23:26:38.288Z,2.67
2019-02-09T23:29:06.511Z,3.93
2019-02-09T23:31:34.590Z,4.20
2019-02-09T23:34:02.852Z,3.43
2019-02-09T23:36:31.153Z,3.23
2019-02-09T23:38:59.350Z,3.30
2019-02-09T23:41:27.505Z,3.70
2019-02-09T23:43:55.703Z,3.77
2019-02-09T23:46:23.841Z,3.33
2019-02-09T23:48:51.985Z,3.33
2019-02-09T23:51:20.148Z,3.50
2019-02-09T23:53:48.293Z,3.00
2019-02-09T23:56:16.438Z,3.30
2019-02-09T23:58:44.613Z,2.60
